createdAt,value
2023-05-10T00:00:57.824Z,0.40
2023-05-10T00:03:25.371Z,0.52
2023-05-10T00:05:54.279Z,0.50
2023-05-10T00:08:21.785Z,0.60
2023-05-10T00:10:49.410Z,0.50
2023-05-10T00:13:17.003Z,0.50
2023-05-10T00:15:44.482Z,0.50
2023-05-10T00:18:12.031Z,0.50
2023-05-10T00:20:39.494Z,0.50
2023-05-10T00:23:08.566Z,0.50
2023-05-10T00:25:36.130Z,0.50
2023-05-10T00:28:03.647Z,0.40
2023-05-10T00:30:31.116Z,0.50
2023-05-10T00:32:58.702Z,0.50
2023-05-10T00:35:27.009Z,0.52
2023-05-10T00:37:54.516Z,0.50
2023-05-10T00:40:23.360Z,0.50
2023-05-10T00:42:50.812Z,0.50
2023-05-10T00:45:18.266Z,0.50
2023-05-10T00:47:45.802Z,0.60
2023-05-10T00:50:13.548Z,0.50
2023-05-10T00:52:41.193Z,0.50
2023-05-10T00:55:09.119Z,0.50
2023-05-10T00:57:37.964Z,0.50
2023-05-10T01:00:05.968Z,0.50
2023-05-10T01:02:33.608Z,0.47
2023-05-10T01:05:01.217Z,0.50
2023-05-10T01:07:29.010Z,0.60
2023-05-10T01:09:56.465Z,0.50
2023-05-10T01:12:23.957Z,0.50
2023-05-10T01:14:52.907Z,0.47
2023-05-10T01:17:20.528Z,0.50
2023-05-10T01:19:48.255Z,0.50
2023-05-10T01:22:22.725Z,0.50
2023-05-10T01:25:08.465Z,0.50
2023-05-10T01:27:54.199Z,0.43
2023-05-10T01:30:39.259Z,0.50
2023-05-10T01:33:12.870Z,0.50
2023-05-10T01:35:42.157Z,0.60
2023-05-10T01:38:13.879Z,0.50
2023-05-10T01:40:44.137Z,0.50
2023-05-10T01:43:16.798Z,0.60
2023-05-10T01:45:49.433Z,0.50
2023-05-10T01:48:19.473Z,0.50
2023-05-10T01:50:48.446Z,0.50
2023-05-10T01:53:19.362Z,0.50
2023-05-10T01:55:48.568Z,0.60
2023-05-10T01:58:17.326Z,0.47
2023-05-10T02:00:45.694Z,0.40
2023-05-10T02:03:13.942Z,0.50
2023-05-10T02:05:43.287Z,0.50
2023-05-10T02:08:10.902Z,0.50
2023-05-10T02:10:38.982Z,0.50
2023-05-10T02:13:07.982Z,0.50
2023-05-10T02:15:36.123Z,0.50
2023-05-10T02:18:04.443Z,0.50
2023-05-10T02:20:33.390Z,0.55
2023-05-10T02:23:02.960Z,0.50
2023-05-10T02:25:30.867Z,0.60
2023-05-10T02:27:58.999Z,0.50
2023-05-10T02:30:26.749Z,0.50
2023-05-10T02:32:54.405Z,0.50
2023-05-10T02:35:22.637Z,0.50
2023-05-10T02:37:50.768Z,0.50
2023-05-10T02:40:20.090Z,0.50
2023-05-10T02:42:49.611Z,0.55
2023-05-10T02:45:25.839Z,0.55
2023-05-10T02:47:53.305Z,0.50
2023-05-10T02:50:20.922Z,0.50
2023-05-10T02:52:49.185Z,0.50
2023-05-10T02:55:17.162Z,0.60
2023-05-10T02:57:50.401Z,0.60
2023-05-10T03:00:18.015Z,0.60
2023-05-10T03:02:45.699Z,0.50
2023-05-10T03:05:13.216Z,0.60
2023-05-10T03:07:40.707Z,0.50
2023-05-10T03:10:08.695Z,0.50
2023-05-10T03:12:43.391Z,0.50
2023-05-10T03:15:14.612Z,0.50
2023-05-10T03:17:48.174Z,0.60
2023-05-10T03:20:19.193Z,0.60
2023-05-10T03:22:49.042Z,0.55
2023-05-10T03:25:17.636Z,0.60
2023-05-10T03:27:45.632Z,0.50
2023-05-10T03:30:15.077Z,0.60
2023-05-10T03:32:42.769Z,0.50
2023-05-10T03:35:10.420Z,0.60
2023-05-10T03:37:37.944Z,0.60
2023-05-10T03:40:06.010Z,0.60
2023-05-10T03:42:33.602Z,0.60
2023-05-10T03:45:01.173Z,0.60
2023-05-10T03:47:30.757Z,0.50
2023-05-10T03:49:58.304Z,0.60
2023-05-10T03:52:26.219Z,0.60
2023-05-10T03:54:53.708Z,0.60
2023-05-10T03:57:21.169Z,0.60
2023-05-10T03:59:48.627Z,0.70
2023-05-10T04:02:16.164Z,0.60
2023-05-10T04:04:45.048Z,0.60
2023-05-10T04:07:12.529Z,0.60
2023-05-10T04:09:40.002Z,0.60
2023-05-10T04:12:10.142Z,0.60
2023-05-10T04:14:38.588Z,0.50
2023-05-10T04:17:06.556Z,0.60
2023-05-10T04:19:34.240Z,0.60
2023-05-10T04:22:04.050Z,0.60
2023-05-10T04:24:31.585Z,0.60
2023-05-10T04:26:59.028Z,0.50
2023-05-10T04:29:26.904Z,0.60
2023-05-10T04:31:54.520Z,0.60
2023-05-10T04:34:22.429Z,0.60
2023-05-10T04:36:49.919Z,0.60
2023-05-10T04:39:19.040Z,0.50
2023-05-10T04:41:46.513Z,0.60
2023-05-10T04:44:14.038Z,0.50
2023-05-10T04:46:41.531Z,0.52
2023-05-10T04:49:09.315Z,0.50
2023-05-10T04:51:36.817Z,0.60
2023-05-10T04:54:06.609Z,0.60
2023-05-10T04:56:35.732Z,0.60
2023-05-10T04:59:03.573Z,0.60
2023-05-10T05:01:31.107Z,0.60
2023-05-10T05:03:58.803Z,0.70
2023-05-10T05:06:28.047Z,0.60
2023-05-10T05:08:55.539Z,0.50
2023-05-10T05:11:23.322Z,0.60
2023-05-10T05:13:52.139Z,0.60
2023-05-10T05:16:19.816Z,0.60
2023-05-10T05:18:47.308Z,0.60
2023-05-10T05:21:17.981Z,0.57
2023-05-10T05:23:45.699Z,0.60
2023-05-10T05:26:13.265Z,0.50
2023-05-10T05:28:40.767Z,0.60
2023-05-10T05:31:10.079Z,0.50
2023-05-10T05:33:38.094Z,0.55
2023-05-10T05:36:06.559Z,0.50
2023-05-10T05:38:34.174Z,0.50
2023-05-10T05:41:01.703Z,0.50
2023-05-10T05:43:29.149Z,0.60
2023-05-10T05:45:58.983Z,0.60
2023-05-10T05:48:28.190Z,0.50
2023-05-10T05:50:57.207Z,0.50
2023-05-10T05:53:24.734Z,0.45
2023-05-10T05:55:56.081Z,0.50
2023-05-10T05:58:23.663Z,0.50
2023-05-10T06:00:51.345Z,0.60
2023-05-10T06:03:18.941Z,0.40
2023-05-10T06:05:47.856Z,0.40
2023-05-10T06:08:15.315Z,0.50
2023-05-10T06:10:42.763Z,0.40
2023-05-10T06:13:10.917Z,0.47
2023-05-10T06:15:38.718Z,0.50
2023-05-10T06:18:06.856Z,0.50
2023-05-10T06:20:34.443Z,0.40
2023-05-10T06:23:03.352Z,0.40
2023-05-10T06:25:31.086Z,0.40
2023-05-10T06:27:59.010Z,0.50
2023-05-10T06:30:29.027Z,0.43
2023-05-10T06:32:56.809Z,0.40
2023-05-10T06:35:25.108Z,0.40
2023-05-10T06:37:52.766Z,0.40
2023-05-10T06:40:21.752Z,0.50
2023-05-10T06:42:49.226Z,0.50
2023-05-10T06:45:17.121Z,0.40
2023-05-10T06:47:45.328Z,0.40
2023-05-10T06:50:13.250Z,0.50
2023-05-10T06:52:41.078Z,0.40
2023-05-10T06:55:09.299Z,0.40
2023-05-10T06:57:38.187Z,0.40
2023-05-10T07:00:06.394Z,0.40
2023-05-10T07:02:34.003Z,0.40
2023-05-10T07:05:14.775Z,0.50
2023-05-10T07:07:42.421Z,0.40
2023-05-10T07:10:10.620Z,0.30
2023-05-10T07:12:39.781Z,0.40
2023-05-10T07:15:07.949Z,0.40
2023-05-10T07:17:35.620Z,0.45
2023-05-10T07:20:04.712Z,0.50
2023-05-10T07:22:32.190Z,0.40
2023-05-10T07:24:59.679Z,0.40
2023-05-10T07:27:27.251Z,0.40
2023-05-10T07:29:57.517Z,0.40
2023-05-10T07:32:25.102Z,0.40
2023-05-10T07:34:52.679Z,0.40
2023-05-10T07:37:20.214Z,0.47
2023-05-10T07:39:48.000Z,0.40
2023-05-10T07:42:15.456Z,0.47
2023-05-10T07:44:43.129Z,0.43
2023-05-10T07:47:12.001Z,0.40
2023-05-10T07:49:39.528Z,0.40
2023-05-10T07:52:07.174Z,0.50
2023-05-10T07:54:34.707Z,0.50
2023-05-10T07:57:02.291Z,0.40
2023-05-10T07:59:30.071Z,0.40
2023-05-10T08:01:57.650Z,0.50
2023-05-10T08:04:26.721Z,0.40
2023-05-10T08:06:54.203Z,0.40
2023-05-10T08:09:24.955Z,0.50
2023-05-10T08:11:52.698Z,0.40
2023-05-10T08:14:20.680Z,0.50
2023-05-10T08:16:48.614Z,0.50
2023-05-10T08:19:19.866Z,0.40
2023-05-10T08:21:49.687Z,0.45
2023-05-10T08:24:17.222Z,0.50
2023-05-10T08:26:45.024Z,0.40
2023-05-10T08:29:12.581Z,0.40
2023-05-10T08:31:40.120Z,0.40
2023-05-10T08:34:07.680Z,0.40
2023-05-10T08:36:35.454Z,0.50
2023-05-10T08:39:04.515Z,0.40
2023-05-10T08:41:35.335Z,0.50
2023-05-10T08:44:06.097Z,0.50
2023-05-10T08:46:36.400Z,0.40
2023-05-10T08:49:05.217Z,0.50
2023-05-10T08:51:34.939Z,0.50
2023-05-10T08:54:03.931Z,0.50
2023-05-10T08:56:31.544Z,0.50
2023-05-10T08:58:59.470Z,0.50
2023-05-10T09:01:28.044Z,0.50
2023-05-10T09:03:56.295Z,0.50
2023-05-10T09:06:24.330Z,0.50
2023-05-10T09:08:52.156Z,0.47
2023-05-10T09:11:21.870Z,0.50
2023-05-10T09:13:50.216Z,0.50
2023-05-10T09:16:21.611Z,0.40
2023-05-10T09:18:50.353Z,0.40
2023-05-10T09:21:18.203Z,0.50
2023-05-10T09:23:48.116Z,0.40
2023-05-10T09:26:16.343Z,0.47
2023-05-10T09:28:55.132Z,0.50
2023-05-10T09:31:23.299Z,0.40
2023-05-10T09:33:51.823Z,0.50
2023-05-10T09:36:19.358Z,0.50
2023-05-10T09:38:47.419Z,0.50
2023-05-10T09:41:18.394Z,0.40
2023-05-10T09:43:45.941Z,0.50
2023-05-10T09:46:15.028Z,0.50
2023-05-10T09:48:44.021Z,0.50
2023-05-10T09:51:11.575Z,0.50
2023-05-10T09:53:39.224Z,0.50
2023-05-10T09:56:06.858Z,0.50
2023-05-10T09:58:38.428Z,0.60
2023-05-10T10:01:06.140Z,0.50
2023-05-10T10:03:35.080Z,0.52
2023-05-10T10:06:02.601Z,0.50
2023-05-10T10:08:30.154Z,0.50
2023-05-10T10:10:57.686Z,0.52
2023-05-10T10:13:25.247Z,0.43
2023-05-10T10:15:54.234Z,0.40
2023-05-10T10:18:24.669Z,0.52
2023-05-10T10:20:54.985Z,0.50
2023-05-10T10:23:22.429Z,0.50
2023-05-10T10:25:50.391Z,0.50
2023-05-10T10:28:23.141Z,0.50
2023-05-10T10:30:51.894Z,0.60
2023-05-10T10:33:32.689Z,0.50
2023-05-10T10:36:02.674Z,0.50
2023-05-10T10:38:38.785Z,0.60
2023-05-10T10:41:11.436Z,0.50
2023-05-10T10:43:38.912Z,0.60
2023-05-10T10:46:16.975Z,0.60
2023-05-10T10:48:49.356Z,0.60
2023-05-10T10:51:18.251Z,0.50
2023-05-10T10:53:45.920Z,0.50
2023-05-10T10:56:16.117Z,0.50
2023-05-10T10:58:50.939Z,0.60
2023-05-10T11:01:19.217Z,0.50
2023-05-10T11:04:01.636Z,0.50
2023-05-10T11:06:34.546Z,0.50
2023-05-10T11:09:07.398Z,0.60
2023-05-10T11:11:36.110Z,0.60
2023-05-10T11:14:05.022Z,0.50
2023-05-10T11:16:42.715Z,0.50
2023-05-10T11:19:11.299Z,0.50
2023-05-10T11:21:48.287Z,0.50
2023-05-10T11:24:17.242Z,0.50
2023-05-10T11:26:44.961Z,0.50
2023-05-10T11:29:14.457Z,0.50
2023-05-10T11:31:45.966Z,0.40
2023-05-10T11:34:15.294Z,0.60
2023-05-10T11:36:42.746Z,0.50
2023-05-10T11:39:12.735Z,0.55
2023-05-10T11:41:42.988Z,0.50
2023-05-10T11:44:11.582Z,0.60
2023-05-10T11:46:41.491Z,0.60
2023-05-10T11:49:09.518Z,0.50
2023-05-10T11:51:37.760Z,0.50
2023-05-10T11:54:08.001Z,0.50
2023-05-10T11:56:37.037Z,0.50
2023-05-10T11:59:05.630Z,0.50
2023-05-10T12:01:33.689Z,0.60
2023-05-10T12:04:01.695Z,0.60
2023-05-10T12:06:31.979Z,0.60
2023-05-10T12:09:00.229Z,0.60
2023-05-10T12:11:28.286Z,0.60
2023-05-10T12:13:58.026Z,0.50
2023-05-10T12:16:26.253Z,0.50
2023-05-10T12:18:54.309Z,0.50
2023-05-10T12:21:22.385Z,0.10
2023-05-10T12:23:50.507Z,0.10
2023-05-10T12:26:18.139Z,0.10
2023-05-10T12:28:47.287Z,0.00
2023-05-10T12:31:16.294Z,0.03
2023-05-10T12:33:44.505Z,0.10
2023-05-10T12:36:12.430Z,0.00
2023-05-10T12:38:41.294Z,0.10
2023-05-10T12:41:09.885Z,0.10
2023-05-10T12:43:37.831Z,0.10
2023-05-10T12:46:09.081Z,0.10
2023-05-10T12:48:38.335Z,0.10
2023-05-10T12:51:06.429Z,0.10
2023-05-10T12:53:34.178Z,0.10
2023-05-10T12:56:01.744Z,0.10
2023-05-10T12:58:35.665Z,0.10
2023-05-10T13:01:04.257Z,0.10
2023-05-10T13:03:31.894Z,0.10
2023-05-10T13:06:01.478Z,0.10
2023-05-10T13:08:33.624Z,0.10
2023-05-10T13:11:01.228Z,0.10
2023-05-10T13:13:28.906Z,0.10
2023-05-10T13:15:56.633Z,0.10
2023-05-10T13:18:25.544Z,0.10
2023-05-10T13:20:53.244Z,0.10
2023-05-10T13:23:22.878Z,0.10
2023-05-10T13:25:51.100Z,0.10
2023-05-10T13:28:18.654Z,0.10
2023-05-10T13:30:46.431Z,0.20
2023-05-10T13:33:14.012Z,0.17
2023-05-10T13:35:41.610Z,0.10
2023-05-10T13:38:09.281Z,0.10
2023-05-10T13:40:38.410Z,0.13
2023-05-10T13:43:06.208Z,0.20
2023-05-10T13:45:34.158Z,0.20
2023-05-10T13:48:03.465Z,0.10
2023-05-10T13:50:31.373Z,0.10
2023-05-10T13:52:59.302Z,0.10
2023-05-10T13:55:27.956Z,0.10
2023-05-10T13:57:57.862Z,0.10
2023-05-10T14:00:27.223Z,0.10
2023-05-10T14:02:55.162Z,0.10
2023-05-10T14:05:26.117Z,0.20
2023-05-10T14:07:54.919Z,0.20
2023-05-10T14:10:22.789Z,0.10
2023-05-10T14:12:53.465Z,0.10
2023-05-10T14:15:22.670Z,0.10
2023-05-10T14:17:50.309Z,0.10
2023-05-10T14:20:18.000Z,0.10
2023-05-10T14:22:45.595Z,0.20
2023-05-10T14:25:13.209Z,0.10
2023-05-10T14:27:40.844Z,0.10
2023-05-10T14:30:09.100Z,0.10
2023-05-10T14:32:38.813Z,0.10
2023-05-10T14:35:07.227Z,0.10
2023-05-10T14:37:34.998Z,0.10
2023-05-10T14:40:03.294Z,0.13
2023-05-10T14:42:30.851Z,0.10
2023-05-10T14:44:58.415Z,0.10
2023-05-10T14:47:26.024Z,0.10
2023-05-10T14:49:54.965Z,0.10
2023-05-10T14:52:22.697Z,0.10
2023-05-10T14:54:50.655Z,0.10
2023-05-10T14:57:18.428Z,0.10
2023-05-10T14:59:46.272Z,0.10
2023-05-10T15:02:14.705Z,0.10
2023-05-10T15:04:42.989Z,0.10
2023-05-10T15:07:15.426Z,0.10
2023-05-10T15:09:43.127Z,0.10
2023-05-10T15:12:11.040Z,0.10
2023-05-10T15:14:38.827Z,0.10
2023-05-10T15:17:08.537Z,0.10
2023-05-10T15:19:36.907Z,0.10
2023-05-10T15:22:04.768Z,0.10
2023-05-10T15:24:33.734Z,0.10
2023-05-10T15:27:01.683Z,0.20
2023-05-10T15:29:29.254Z,0.10
2023-05-10T15:31:56.858Z,0.10
2023-05-10T15:34:24.673Z,0.10
2023-05-10T15:36:52.279Z,0.10
2023-05-10T15:39:20.015Z,0.10
2023-05-10T15:41:49.838Z,0.15
2023-05-10T15:44:17.662Z,0.10
2023-05-10T15:46:45.271Z,0.10
2023-05-10T15:49:13.180Z,0.10
2023-05-10T15:51:40.734Z,0.20
2023-05-10T15:54:08.610Z,0.10
2023-05-10T15:56:36.373Z,0.10
2023-05-10T15:59:06.054Z,0.10
2023-05-10T16:01:33.683Z,0.10
2023-05-10T16:04:01.580Z,0.10
2023-05-10T16:06:29.160Z,0.10
2023-05-10T16:08:56.729Z,0.10
2023-05-10T16:11:24.297Z,0.10
2023-05-10T16:13:52.751Z,0.10
2023-05-10T16:16:21.806Z,0.10
2023-05-10T16:18:49.691Z,0.10
2023-05-10T16:21:17.323Z,0.10
2023-05-10T16:23:46.491Z,0.10
2023-05-10T16:26:14.217Z,0.10
2023-05-10T16:28:41.839Z,0.10
2023-05-10T16:31:09.433Z,0.00
2023-05-10T16:33:38.448Z,0.10
2023-05-10T16:36:06.583Z,0.10
2023-05-10T16:38:34.185Z,0.10
2023-05-10T16:41:03.565Z,0.00
2023-05-10T16:43:32.342Z,0.10
2023-05-10T16:46:00.007Z,0.10
2023-05-10T16:48:27.670Z,0.00
2023-05-10T16:50:56.627Z,0.00
2023-05-10T16:53:24.222Z,0.03
2023-05-10T16:55:51.911Z,0.05
2023-05-10T16:58:19.575Z,0.00
2023-05-10T17:00:47.449Z,0.00
2023-05-10T17:03:15.282Z,0.00
2023-05-10T17:05:43.185Z,0.00
2023-05-10T17:08:12.306Z,0.00
2023-05-10T17:10:40.696Z,0.00
2023-05-10T17:13:10.432Z,0.00
2023-05-10T17:15:38.721Z,0.00
2023-05-10T17:18:07.040Z,0.00
2023-05-10T17:20:34.710Z,0.00
2023-05-10T17:23:03.176Z,0.00
2023-05-10T17:25:32.216Z,0.00
2023-05-10T17:27:59.811Z,0.00
2023-05-10T17:30:28.784Z,0.00
2023-05-10T17:32:57.566Z,0.00
2023-05-10T17:35:25.248Z,0.00
2023-05-10T17:37:52.924Z,0.00
2023-05-10T17:40:21.062Z,0.00
2023-05-10T17:42:50.051Z,0.00
2023-05-10T17:45:18.419Z,0.00
2023-05-10T17:47:46.442Z,0.00
2023-05-10T17:50:14.132Z,0.00
2023-05-10T17:52:41.769Z,0.00
2023-05-10T17:55:09.810Z,0.00
2023-05-10T17:57:38.706Z,0.00
2023-05-10T18:00:11.055Z,0.00
2023-05-10T18:02:38.817Z,0.00
2023-05-10T18:05:07.180Z,0.00
2023-05-10T18:07:35.963Z,0.00
2023-05-10T18:10:03.551Z,0.00
2023-05-10T18:12:31.163Z,0.00
2023-05-10T18:14:58.807Z,0.00
2023-05-10T18:17:27.903Z,0.00
2023-05-10T18:19:55.562Z,0.00
2023-05-10T18:22:23.238Z,0.00
2023-05-10T18:24:50.826Z,0.00
2023-05-10T18:27:18.390Z,0.00
2023-05-10T18:29:46.065Z,0.00
2023-05-10T18:32:13.876Z,0.00
2023-05-10T18:34:42.849Z,0.00
2023-05-10T18:37:10.629Z,0.00
2023-05-10T18:39:38.607Z,0.00
2023-05-10T18:42:06.754Z,0.00
2023-05-10T18:44:34.523Z,0.00
2023-05-10T18:47:02.970Z,0.00
2023-05-10T18:49:30.551Z,0.00
2023-05-10T18:51:59.556Z,0.00
2023-05-10T18:54:27.313Z,0.00
2023-05-10T18:56:54.900Z,0.00
2023-05-10T18:59:23.041Z,0.00
2023-05-10T19:01:51.308Z,0.00
2023-05-10T19:04:19.175Z,0.00
2023-05-10T19:06:46.795Z,0.00
2023-05-10T19:09:15.752Z,0.00
2023-05-10T19:11:43.488Z,0.00
2023-05-10T19:14:11.150Z,0.00
2023-05-10T19:16:38.868Z,0.00
2023-05-10T19:19:08.635Z,0.00
2023-05-10T19:21:37.088Z,0.00
2023-05-10T19:24:04.867Z,0.00
2023-05-10T19:26:33.827Z,0.00
2023-05-10T19:29:03.286Z,0.00
2023-05-10T19:31:35.354Z,0.00
2023-05-10T19:34:03.905Z,0.00
2023-05-10T19:36:32.588Z,0.00
2023-05-10T19:39:00.108Z,0.00
2023-05-10T19:41:27.733Z,0.00
2023-05-10T19:43:56.584Z,0.00
2023-05-10T19:46:24.630Z,0.00
2023-05-10T19:48:52.581Z,0.00
2023-05-10T19:51:20.190Z,0.00
2023-05-10T19:53:47.673Z,0.00
2023-05-10T19:56:16.471Z,0.00
2023-05-10T19:58:44.202Z,0.00
2023-05-10T20:01:13.098Z,0.00
2023-05-10T20:03:40.817Z,0.00
2023-05-10T20:06:08.332Z,0.00
2023-05-10T20:08:35.791Z,0.00
2023-05-10T20:11:03.897Z,0.00
2023-05-10T20:13:31.656Z,0.00
2023-05-10T20:15:59.417Z,0.00
2023-05-10T20:18:28.338Z,0.00
2023-05-10T20:20:56.016Z,0.00
2023-05-10T20:23:23.568Z,0.00
2023-05-10T20:25:51.158Z,0.00
2023-05-10T20:28:21.657Z,0.00
2023-05-10T20:30:50.623Z,0.00
2023-05-10T20:33:19.203Z,0.00
2023-05-10T20:35:48.060Z,0.00
2023-05-10T20:38:15.585Z,0.00
2023-05-10T20:40:43.081Z,0.00
2023-05-10T20:43:10.550Z,0.00
2023-05-10T20:45:38.249Z,0.00
2023-05-10T20:48:05.993Z,0.00
2023-05-10T20:50:33.728Z,0.00
2023-05-10T20:53:02.931Z,0.00
2023-05-10T20:55:30.397Z,0.00
2023-05-10T20:57:57.937Z,0.00
2023-05-10T21:00:26.091Z,0.00
2023-05-10T21:02:53.626Z,0.00
2023-05-10T21:05:21.151Z,0.00
2023-05-10T21:07:49.430Z,0.00
2023-05-10T21:10:18.498Z,0.00
2023-05-10T21:12:46.323Z,0.10
2023-05-10T21:15:13.816Z,0.00
2023-05-10T21:17:41.283Z,0.00
2023-05-10T21:20:09.406Z,0.00
2023-05-10T21:22:36.964Z,0.00
2023-05-10T21:25:04.540Z,0.00
2023-05-10T21:27:35.973Z,0.00
2023-05-10T21:30:04.450Z,0.00
2023-05-10T21:32:31.958Z,0.00
2023-05-10T21:34:59.524Z,0.00
2023-05-10T21:37:27.084Z,0.00
2023-05-10T21:39:54.565Z,0.00
2023-05-10T21:42:22.039Z,0.00
2023-05-10T21:44:50.947Z,0.00
2023-05-10T21:47:18.567Z,0.00
2023-05-10T21:49:46.098Z,0.00
2023-05-10T21:52:13.565Z,0.00
2023-05-10T21:54:41.811Z,0.00
2023-05-10T21:57:09.360Z,0.00
2023-05-10T21:59:36.799Z,0.00
2023-05-10T22:02:05.715Z,0.00
2023-05-10T22:04:33.270Z,0.10
2023-05-10T22:07:00.698Z,0.00
2023-05-10T22:09:28.169Z,0.00
2023-05-10T22:11:55.891Z,0.00
2023-05-10T22:14:23.848Z,0.10
2023-05-10T22:16:51.347Z,0.00
2023-05-10T22:19:20.176Z,0.10
2023-05-10T22:21:47.652Z,0.00
2023-05-10T22:24:15.191Z,0.08
2023-05-10T22:26:42.692Z,0.00
2023-05-10T22:29:10.387Z,0.00
2023-05-10T22:31:38.087Z,0.00
2023-05-10T22:34:05.772Z,0.10
2023-05-10T22:36:34.596Z,0.10
2023-05-10T22:39:02.255Z,0.10
2023-05-10T22:41:29.754Z,0.00
2023-05-10T22:43:57.259Z,0.00
2023-05-10T22:46:24.772Z,0.10
2023-05-10T22:48:52.439Z,0.00
2023-05-10T22:51:19.984Z,0.00
2023-05-10T22:53:48.796Z,0.00
2023-05-10T22:56:16.481Z,0.00
2023-05-10T22:58:44.054Z,0.00
2023-05-10T23:01:12.000Z,0.00
2023-05-10T23:03:39.515Z,0.00
2023-05-10T23:06:07.171Z,0.00
2023-05-10T23:08:34.650Z,0.00
2023-05-10T23:11:03.521Z,0.08
2023-05-10T23:13:30.976Z,0.00
2023-05-10T23:15:58.506Z,0.10
2023-05-10T23:18:26.074Z,0.00
2023-05-10T23:20:53.855Z,0.10
2023-05-10T23:23:22.696Z,0.05
2023-05-10T23:25:50.299Z,0.00
2023-05-10T23:28:19.275Z,0.00
2023-05-10T23:30:46.857Z,0.00
2023-05-10T23:33:14.742Z,0.00
2023-05-10T23:35:43.354Z,0.00
2023-05-10T23:38:10.791Z,0.10
2023-05-10T23:40:38.277Z,0.08
2023-05-10T23:43:06.031Z,0.00
2023-05-10T23:45:34.890Z,0.10
2023-05-10T23:48:02.486Z,0.10
2023-05-10T23:50:30.065Z,0.00
2023-05-10T23:52:57.529Z,0.00
2023-05-10T23:55:24.985Z,0.10
2023-05-10T23:57:52.490Z,0.10
